Map

Track Data

SID SEASON NUMBER BASIN SUBBASIN NAME ISO_TIME NATURE LAT LON WMO_WIND WMO_PRES WMO_AGENCY TRACK_TYPE DIST2LAND LANDFALL IFLAG USA_AGENCY USA_ATCF_ID USA_LAT USA_LON USA_RECORD USA_STATUS USA_WIND USA_PRES USA_SSHS USA_R34_NE USA_R34_SE USA_R34_SW USA_R34_NW USA_R50_NE USA_R50_SE USA_R50_SW USA_R50_NW USA_R64_NE USA_R64_SE USA_R64_SW USA_R64_NW USA_POCI USA_ROCI USA_RMW USA_EYE TOKYO_LAT TOKYO_LON TOKYO_GRADE TOKYO_WIND TOKYO_PRES TOKYO_R50_DIR TOKYO_R50_LONG TOKYO_R50_SHORT TOKYO_R30_DIR TOKYO_R30_LONG TOKYO_R30_SHORT TOKYO_LAND CMA_LAT CMA_LON CMA_CAT CMA_WIND CMA_PRES HKO_LAT HKO_LON HKO_CAT HKO_WIND HKO_PRES NEWDELHI_LAT NEWDELHI_LON NEWDELHI_GRADE NEWDELHI_WIND NEWDELHI_PRES NEWDELHI_CI NEWDELHI_DP NEWDELHI_POCI REUNION_LAT REUNION_LON REUNION_TYPE REUNION_WIND REUNION_PRES REUNION_TNUM REUNION_CI REUNION_RMW REUNION_R34_NE REUNION_R34_SE REUNION_R34_SW REUNION_R34_NW REUNION_R50_NE REUNION_R50_SE REUNION_R50_SW REUNION_R50_NW REUNION_R64_NE REUNION_R64_SE REUNION_R64_SW REUNION_R64_NW BOM_LAT BOM_LON BOM_TYPE BOM_WIND BOM_PRES BOM_TNUM BOM_CI BOM_RMW BOM_R34_NE BOM_R34_SE BOM_R34_SW BOM_R34_NW BOM_R50_NE BOM_R50_SE BOM_R50_SW BOM_R50_NW BOM_R64_NE BOM_R64_SE BOM_R64_SW BOM_R64_NW BOM_ROCI BOM_POCI BOM_EYE BOM_POS_METHOD BOM_PRES_METHOD NADI_LAT NADI_LON NADI_CAT NADI_WIND NADI_PRES WELLINGTON_LAT WELLINGTON_LON WELLINGTON_WIND WELLINGTON_PRES DS824_LAT DS824_LON DS824_STAGE DS824_WIND DS824_PRES TD9636_LAT TD9636_LON TD9636_STAGE TD9636_WIND TD9636_PRES TD9635_LAT TD9635_LON TD9635_WIND TD9635_PRES TD9635_ROCI NEUMANN_LAT NEUMANN_LON NEUMANN_CLASS NEUMANN_WIND NEUMANN_PRES MLC_LAT MLC_LON MLC_CLASS MLC_WIND MLC_PRES USA_GUST BOM_GUST BOM_GUST_PER REUNION_GUST REUNION_GUST_PER USA_SEAHGT USA_SEARAD_NE USA_SEARAD_SE USA_SEARAD_SW USA_SEARAD_NW STORM_SPEED STORM_DIR
1903277N22127 1903 51 WP MM NOT_NAMED 1903-10-03 16:00:00 NR 21.9000 126.500 main 540 491 __________O___ -1 21.9000 126.500 7 14 271
1903277N22127 1903 51 WP MM NOT_NAMED 1903-10-03 18:00:00 NR 21.9117 125.983 main 491 412 __________P___ -1 21.9117 125.983 7 14 271
1903277N22127 1903 51 WP MM NOT_NAMED 1903-10-03 21:00:00 NR 21.9295 125.220 main 412 341 __________P___ -1 21.9295 125.220 7 14 272
1903277N22127 1903 51 WP MM NOT_NAMED 1903-10-04 00:00:00 NR 21.9522 124.490 main 341 275 __________P___ -1 21.9522 124.490 7 13 272
1903277N22127 1903 51 WP MM NOT_NAMED 1903-10-04 03:00:00 NR 21.9855 123.811 main 275 257 __________P___ -1 21.9855 123.811 7 12 273
1903277N22127 1903 51 WP MM NOT_NAMED 1903-10-04 04:00:00 NR 22.0000 123.600 main 257 221 __________O___ -1 22.0000 123.600 3 11 275
1903277N22127 1903 51 WP MM NOT_NAMED 1903-10-04 06:00:00 NR 22.0348 123.202 main 221 174 __________P___ -1 22.0348 123.202 3 11 277
1903277N22127 1903 51 WP MM NOT_NAMED 1903-10-04 09:00:00 NR 22.1006 122.655 main 174 121 __________P___ -1 22.1006 122.655 3 10 278
1903277N22127 1903 51 WP MM NOT_NAMED 1903-10-04 12:00:00 NR 22.1797 122.149 main 121 79 __________P___ -1 22.1797 122.149 3 9 280
1903277N22127 1903 51 WP MM NOT_NAMED 1903-10-04 15:00:00 NR 22.2688 121.662 main 79 61 __________P___ -1 22.2688 121.662 3 9 281
1903277N22127 1903 51 WP MM NOT_NAMED 1903-10-04 16:00:00 NR 22.3000 121.500 main 61 30 __________O___ -1 22.3000 121.500 4 10 280
1903277N22127 1903 51 WP MM NOT_NAMED 1903-10-04 18:00:00 NR 22.3475 121.155 main 30 0 __________P___ -1 22.3475 121.155 4 10 279
1903277N22127 1903 51 WP MM NOT_NAMED 1903-10-04 21:00:00 NR 22.4251 120.645 main 0 0 __________P___ -1 22.4251 120.645 4 10 281
1903277N22127 1903 51 WP MM NOT_NAMED 1903-10-05 00:00:00 NR 22.5213 120.145 main 20 20 __________P___ -1 22.5213 120.145 4 9 284
1903277N22127 1903 51 WP MM NOT_NAMED 1903-10-05 03:00:00 NR 22.6485 119.658 main 55 62 __________P___ -1 22.6485 119.658 4 9 287
1903277N22127 1903 51 WP MM NOT_NAMED 1903-10-05 04:00:00 NR 22.7000 119.500 main 72 72 __________O___ -1 22.7000 119.500 4 9 290
1903277N22127 1903 51 WP MM NOT_NAMED 1903-10-05 06:00:00 NR 22.8054 119.183 main 98 98 __________P___ -1 22.8054 119.183 4 9 292
1903277N22127 1903 51 WP MM NOT_NAMED 1903-10-05 09:00:00 NR 22.9950 118.720 main 136 90 __________P___ -1 22.9950 118.720 4 9 297
1903277N22127 1903 51 WP MM NOT_NAMED 1903-10-05 12:00:00 NR 23.2250 118.273 main 90 30 __________P___ -1 23.2250 118.273 4 10 302
1903277N22127 1903 51 WP MM NOT_NAMED 1903-10-05 15:00:00 NR 23.4986 117.841 main 30 15 __________P___ -1 23.4986 117.841 4 10 306
1903277N22127 1903 51 WP MM NOT_NAMED 1903-10-05 16:00:00 NR 23.6000 117.700 main 15 0 __________O___ -1 23.6000 117.700 4 10 310
1903277N22127 1903 51 WP MM NOT_NAMED 1903-10-05 18:00:00 NR 23.8180 117.424 main 0 0 __________P___ -1 23.8180 117.424 4 10 313
1903277N22127 1903 51 WP MM NOT_NAMED 1903-10-05 21:00:00 NR 24.1769 117.020 main 0 0 __________P___ -1 24.1769 117.020 4 10 316
1903277N22127 1903 51 WP MM NOT_NAMED 1903-10-06 00:00:00 NR 24.5633 116.624 main 0 0 __________P___ -1 24.5633 116.624 4 11 318
1903277N22127 1903 51 WP MM NOT_NAMED 1903-10-06 03:00:00 NR 24.9649 116.231 main 0 0 __________P___ -1 24.9649 116.231 4 11 319
1903277N22127 1903 51 WP MM NOT_NAMED 1903-10-06 04:00:00 NR 25.1000 116.100 main 0 __________O___ -1 25.1000 116.100 7 11 318

Digital Typhoon Data and Search

About IBTrACS Database

This database is a web-friendly format of International Best Track Archive for Climate Stewardship (IBTrACS), a global best track data archive curated by NOAA dating back to 1842.

Updated: 2021-12-03